sensor_id;sensor_type;location;lat;lon;timestamp;temperature;humidity
10123;DHT22;5101;49.038;8.710;2022-10-15T00:00:38;15.80;99.90
10123;DHT22;5101;49.038;8.710;2022-10-15T00:03:04;15.80;99.90
10123;DHT22;5101;49.038;8.710;2022-10-15T00:05:29;15.80;99.90
10123;DHT22;5101;49.038;8.710;2022-10-15T00:07:55;15.80;99.90
10123;DHT22;5101;49.038;8.710;2022-10-15T00:10:21;15.80;99.90
10123;DHT22;5101;49.038;8.710;2022-10-15T00:12:46;15.80;99.90
10123;DHT22;5101;49.038;8.710;2022-10-15T00:15:12;15.80;99.90
10123;DHT22;5101;49.038;8.710;2022-10-15T00:17:38;15.80;99.90
10123;DHT22;5101;49.038;8.710;2022-10-15T00:20:06;15.80;99.90
10123;DHT22;5101;49.038;8.710;2022-10-15T00:22:32;15.80;99.90
10123;DHT22;5101;49.038;8.710;2022-10-15T00:24:58;15.80;99.90
10123;DHT22;5101;49.038;8.710;2022-10-15T00:27:23;15.90;99.90
10123;DHT22;5101;49.038;8.710;2022-10-15T00:29:49;15.90;99.90
10123;DHT22;5101;49.038;8.710;2022-10-15T00:32:15;15.90;99.90
10123;DHT22;5101;49.038;8.710;2022-10-15T00:34:40;15.90;99.90
10123;DHT22;5101;49.038;8.710;2022-10-15T00:37:07;15.90;99.90
10123;DHT22;5101;49.038;8.710;2022-10-15T00:39:33;15.90;99.90
10123;DHT22;5101;49.038;8.710;2022-10-15T00:41:59;15.90;99.90
10123;DHT22;5101;49.038;8.710;2022-10-15T00:47:03;16.00;99.90
10123;DHT22;5101;49.038;8.710;2022-10-15T00:49:34;16.00;99.90
10123;DHT22;5101;49.038;8.710;2022-10-15T00:52:05;16.00;99.90
10123;DHT22;5101;49.038;8.710;2022-10-15T00:54:39;16.00;99.90
10123;DHT22;5101;49.038;8.710;2022-10-15T00:57:06;16.00;99.90
10123;DHT22;5101;49.038;8.710;2022-10-15T00:59:35;16.00;99.90
10123;DHT22;5101;49.038;8.710;2022-10-15T01:02:03;16.00;99.90
10123;DHT22;5101;49.038;8.710;2022-10-15T01:04:29;16.00;99.90
10123;DHT22;5101;49.038;8.710;2022-10-15T01:06:55;16.00;99.90
10123;DHT22;5101;49.038;8.710;2022-10-15T01:09:21;16.00;99.90
10123;DHT22;5101;49.038;8.710;2022-10-15T01:11:49;16.00;99.90
10123;DHT22;5101;49.038;8.710;2022-10-15T01:17:48;16.10;99.90
10123;DHT22;5101;49.038;8.710;2022-10-15T01:23:53;16.10;99.90
10123;DHT22;5101;49.038;8.710;2022-10-15T01:26:53;16.10;99.90
10123;DHT22;5101;49.038;8.710;2022-10-15T01:32:11;16.10;99.90
10123;DHT22;5101;49.038;8.710;2022-10-15T01:37:52;16.20;99.90
10123;DHT22;5101;49.038;8.710;2022-10-15T01:40:43;16.20;99.90
10123;DHT22;5101;49.038;8.710;2022-10-15T01:43:26;16.20;99.90
10123;DHT22;5101;49.038;8.710;2022-10-15T01:45:59;16.30;99.90
10123;DHT22;5101;49.038;8.710;2022-10-15T01:48:28;16.30;99.90
10123;DHT22;5101;49.038;8.710;2022-10-15T01:50:57;16.30;99.90
10123;DHT22;5101;49.038;8.710;2022-10-15T01:53:25;16.30;99.90
10123;DHT22;5101;49.038;8.710;2022-10-15T01:56:01;16.40;99.90
10123;DHT22;5101;49.038;8.710;2022-10-15T01:58:29;16.40;99.90
10123;DHT22;5101;49.038;8.710;2022-10-15T02:00:56;16.40;99.90
10123;DHT22;5101;49.038;8.710;2022-10-15T02:03:22;16.40;99.90
10123;DHT22;5101;49.038;8.710;2022-10-15T02:06:05;16.50;99.90
10123;DHT22;5101;49.038;8.710;2022-10-15T02:13:59;16.50;99.90
10123;DHT22;5101;49.038;8.710;2022-10-15T02:19:49;16.60;99.90
10123;DHT22;5101;49.038;8.710;2022-10-15T02:22:23;16.60;99.90
10123;DHT22;5101;49.038;8.710;2022-10-15T02:25:02;16.60;99.90
10123;DHT22;5101;49.038;8.710;2022-10-15T02:27:30;16.60;99.90
10123;DHT22;5101;49.038;8.710;2022-10-15T02:29:58;16.60;99.90
10123;DHT22;5101;49.038;8.710;2022-10-15T02:32:26;16.60;99.90
10123;DHT22;5101;49.038;8.710;2022-10-15T02:34:53;16.60;99.90
10123;DHT22;5101;49.038;8.710;2022-10-15T02:37:22;16.60;99.90
10123;DHT22;5101;49.038;8.710;2022-10-15T02:39:48;16.60;99.90
10123;DHT22;5101;49.038;8.710;2022-10-15T02:42:16;16.70;99.90
10123;DHT22;5101;49.038;8.710;2022-10-15T02:44:42;16.70;99.90
10123;DHT22;5101;49.038;8.710;2022-10-15T02:47:07;16.70;99.90
10123;DHT22;5101;49.038;8.710;2022-10-15T02:49:33;16.70;99.90
10123;DHT22;5101;49.038;8.710;2022-10-15T02:51:58;16.70;99.90
10123;DHT22;5101;49.038;8.710;2022-10-15T02:54:24;16.70;99.90
10123;DHT22;5101;49.038;8.710;2022-10-15T02:56:49;16.70;99.90
10123;DHT22;5101;49.038;8.710;2022-10-15T02:59:15;16.70;99.90
10123;DHT22;5101;49.038;8.710;2022-10-15T03:01:41;16.70;99.90
10123;DHT22;5101;49.038;8.710;2022-10-15T03:04:06;16.70;99.90
10123;DHT22;5101;49.038;8.710;2022-10-15T03:06:32;16.70;99.90
10123;DHT22;5101;49.038;8.710;2022-10-15T03:08:57;16.70;99.90
10123;DHT22;5101;49.038;8.710;2022-10-15T03:11:23;16.80;99.90
10123;DHT22;5101;49.038;8.710;2022-10-15T03:13:49;16.80;99.90
10123;DHT22;5101;49.038;8.710;2022-10-15T03:16:14;16.80;99.90
10123;DHT22;5101;49.038;8.710;2022-10-15T03:18:40;16.80;99.90
10123;DHT22;5101;49.038;8.710;2022-10-15T03:21:05;16.80;99.90
10123;DHT22;5101;49.038;8.710;2022-10-15T03:23:31;16.80;99.90
10123;DHT22;5101;49.038;8.710;2022-10-15T03:25:56;16.80;99.90
10123;DHT22;5101;49.038;8.710;2022-10-15T03:28:22;16.80;99.90
10123;DHT22;5101;49.038;8.710;2022-10-15T03:30:48;16.80;99.90
10123;DHT22;5101;49.038;8.710;2022-10-15T03:33:13;16.80;99.90
10123;DHT22;5101;49.038;8.710;2022-10-15T03:35:40;16.80;99.90
10123;DHT22;5101;49.038;8.710;2022-10-15T03:38:06;16.80;99.90
10123;DHT22;5101;49.038;8.710;2022-10-15T03:40:32;16.80;99.90
10123;DHT22;5101;49.038;8.710;2022-10-15T03:42:58;16.80;99.90
10123;DHT22;5101;49.038;8.710;2022-10-15T03:45:24;16.80;99.90
10123;DHT22;5101;49.038;8.710;2022-10-15T03:47:50;16.80;99.90
10123;DHT22;5101;49.038;8.710;2022-10-15T03:50:15;16.80;99.90
10123;DHT22;5101;49.038;8.710;2022-10-15T03:52:41;16.80;99.90
10123;DHT22;5101;49.038;8.710;2022-10-15T03:55:08;16.80;99.90
10123;DHT22;5101;49.038;8.710;2022-10-15T03:57:34;16.80;99.90
10123;DHT22;5101;49.038;8.710;2022-10-15T04:00:00;16.80;99.90
10123;DHT22;5101;49.038;8.710;2022-10-15T04:02:26;16.80;99.90
10123;DHT22;5101;49.038;8.710;2022-10-15T04:04:52;16.80;99.90
10123;DHT22;5101;49.038;8.710;2022-10-15T04:07:19;16.80;99.90
10123;DHT22;5101;49.038;8.710;2022-10-15T04:09:45;16.80;99.90
10123;DHT22;5101;49.038;8.710;2022-10-15T04:12:10;16.80;99.90
10123;DHT22;5101;49.038;8.710;2022-10-15T04:14:36;16.80;99.90
10123;DHT22;5101;49.038;8.710;2022-10-15T04:17:01;16.80;99.90
10123;DHT22;5101;49.038;8.710;2022-10-15T04:19:27;16.80;99.90
10123;DHT22;5101;49.038;8.710;2022-10-15T04:21:52;16.80;99.90
10123;DHT22;5101;49.038;8.710;2022-10-15T04:24:18;16.80;99.90
10123;DHT22;5101;49.038;8.710;2022-10-15T04:26:44;16.80;99.90
10123;DHT22;5101;49.038;8.710;2022-10-15T04:29:09;16.80;99.90
10123;DHT22;5101;49.038;8.710;2022-10-15T04:31:35;16.80;99.90
10123;DHT22;5101;49.038;8.710;2022-10-15T04:34:02;16.80;99.90
10123;DHT22;5101;49.038;8.710;2022-10-15T04:36:27;16.80;99.90
10123;DHT22;5101;49.038;8.710;2022-10-15T04:38:53;16.80;99.90
10123;DHT22;5101;49.038;8.710;2022-10-15T04:41:19;16.80;99.90
10123;DHT22;5101;49.038;8.710;2022-10-15T04:43:44;16.80;99.90
10123;DHT22;5101;49.038;8.710;2022-10-15T04:46:10;16.80;99.90
10123;DHT22;5101;49.038;8.710;2022-10-15T04:48:36;16.80;99.90
10123;DHT22;5101;49.038;8.710;2022-10-15T04:51:07;16.80;99.90
10123;DHT22;5101;49.038;8.710;2022-10-15T04:53:34;16.80;99.90
10123;DHT22;5101;49.038;8.710;2022-10-15T04:56:05;16.80;99.90
10123;DHT22;5101;49.038;8.710;2022-10-15T04:58:32;16.80;99.90
10123;DHT22;5101;49.038;8.710;2022-10-15T05:01:02;16.80;99.90
10123;DHT22;5101;49.038;8.710;2022-10-15T05:03:28;16.80;99.90
10123;DHT22;5101;49.038;8.710;2022-10-15T05:06:03;16.80;99.90
10123;DHT22;5101;49.038;8.710;2022-10-15T05:08:29;16.80;99.90
10123;DHT22;5101;49.038;8.710;2022-10-15T05:10:59;16.80;99.90
10123;DHT22;5101;49.038;8.710;2022-10-15T05:13:25;16.80;99.90
10123;DHT22;5101;49.038;8.710;2022-10-15T05:15:50;16.70;99.90
10123;DHT22;5101;49.038;8.710;2022-10-15T05:18:16;16.70;99.90
10123;DHT22;5101;49.038;8.710;2022-10-15T05:20:41;16.70;99.90
10123;DHT22;5101;49.038;8.710;2022-10-15T05:23:07;16.70;99.90
10123;DHT22;5101;49.038;8.710;2022-10-15T05:25:32;16.70;99.90
10123;DHT22;5101;49.038;8.710;2022-10-15T05:27:58;16.70;99.90
10123;DHT22;5101;49.038;8.710;2022-10-15T05:30:23;16.70;99.90
10123;DHT22;5101;49.038;8.710;2022-10-15T05:32:52;16.70;99.90
10123;DHT22;5101;49.038;8.710;2022-10-15T05:35:18;16.70;99.90
10123;DHT22;5101;49.038;8.710;2022-10-15T05:37:44;16.70;99.90
10123;DHT22;5101;49.038;8.710;2022-10-15T05:40:10;16.70;99.90
10123;DHT22;5101;49.038;8.710;2022-10-15T05:42:36;16.70;99.90
10123;DHT22;5101;49.038;8.710;2022-10-15T05:45:02;16.70;99.90
10123;DHT22;5101;49.038;8.710;2022-10-15T05:47:27;16.60;99.90
10123;DHT22;5101;49.038;8.710;2022-10-15T05:49:53;16.60;99.90
10123;DHT22;5101;49.038;8.710;2022-10-15T05:52:18;16.60;99.90
10123;DHT22;5101;49.038;8.710;2022-10-15T05:54:44;16.60;99.90
10123;DHT22;5101;49.038;8.710;2022-10-15T05:57:09;16.60;99.90
10123;DHT22;5101;49.038;8.710;2022-10-15T05:59:35;16.60;99.90
10123;DHT22;5101;49.038;8.710;2022-10-15T06:02:00;16.50;99.90
10123;DHT22;5101;49.038;8.710;2022-10-15T06:04:27;16.60;99.90
10123;DHT22;5101;49.038;8.710;2022-10-15T06:06:52;16.60;99.90
10123;DHT22;5101;49.038;8.710;2022-10-15T06:09:18;16.60;99.90
10123;DHT22;5101;49.038;8.710;2022-10-15T06:11:43;16.50;99.90
10123;DHT22;5101;49.038;8.710;2022-10-15T06:14:09;16.50;99.90
10123;DHT22;5101;49.038;8.710;2022-10-15T06:16:34;16.50;99.90
10123;DHT22;5101;49.038;8.710;2022-10-15T06:19:00;16.50;99.90
10123;DHT22;5101;49.038;8.710;2022-10-15T06:21:25;16.50;99.90
10123;DHT22;5101;49.038;8.710;2022-10-15T06:23:51;16.50;99.90
10123;DHT22;5101;49.038;8.710;2022-10-15T06:26:16;16.50;99.90
10123;DHT22;5101;49.038;8.710;2022-10-15T06:28:42;16.50;99.90
10123;DHT22;5101;49.038;8.710;2022-10-15T06:31:07;16.50;99.90
10123;DHT22;5101;49.038;8.710;2022-10-15T06:33:34;16.50;99.90
10123;DHT22;5101;49.038;8.710;2022-10-15T06:36:01;16.50;99.90
10123;DHT22;5101;49.038;8.710;2022-10-15T06:38:27;16.50;99.90
10123;DHT22;5101;49.038;8.710;2022-10-15T06:40:53;16.60;99.90
10123;DHT22;5101;49.038;8.710;2022-10-15T06:43:18;16.50;99.90
10123;DHT22;5101;49.038;8.710;2022-10-15T06:45:44;16.60;99.90
10123;DHT22;5101;49.038;8.710;2022-10-15T06:48:10;16.50;99.90
10123;DHT22;5101;49.038;8.710;2022-10-15T06:50:36;16.50;99.90
10123;DHT22;5101;49.038;8.710;2022-10-15T06:53:02;16.60;99.90
10123;DHT22;5101;49.038;8.710;2022-10-15T06:55:28;16.60;99.90
10123;DHT22;5101;49.038;8.710;2022-10-15T06:57:54;16.60;99.90
10123;DHT22;5101;49.038;8.710;2022-10-15T07:00:21;16.60;99.90
10123;DHT22;5101;49.038;8.710;2022-10-15T07:02:47;16.60;99.90
10123;DHT22;5101;49.038;8.710;2022-10-15T07:05:12;16.60;99.90
10123;DHT22;5101;49.038;8.710;2022-10-15T07:07:38;16.60;99.90
10123;DHT22;5101;49.038;8.710;2022-10-15T07:10:04;16.70;99.90
10123;DHT22;5101;49.038;8.710;2022-10-15T07:12:29;16.70;99.90
10123;DHT22;5101;49.038;8.710;2022-10-15T07:14:55;16.70;99.90
10123;DHT22;5101;49.038;8.710;2022-10-15T07:17:20;16.80;99.90
10123;DHT22;5101;49.038;8.710;2022-10-15T07:19:46;16.80;99.90
10123;DHT22;5101;49.038;8.710;2022-10-15T07:22:11;16.80;99.90
10123;DHT22;5101;49.038;8.710;2022-10-15T07:24:37;16.90;99.90
10123;DHT22;5101;49.038;8.710;2022-10-15T07:27:03;16.90;99.90
10123;DHT22;5101;49.038;8.710;2022-10-15T07:29:28;16.90;99.90
10123;DHT22;5101;49.038;8.710;2022-10-15T07:31:55;16.90;99.90
10123;DHT22;5101;49.038;8.710;2022-10-15T07:34:21;16.90;99.90
10123;DHT22;5101;49.038;8.710;2022-10-15T07:36:47;17.00;99.90
10123;DHT22;5101;49.038;8.710;2022-10-15T07:39:12;17.00;99.90
10123;DHT22;5101;49.038;8.710;2022-10-15T07:41:38;17.00;99.90
10123;DHT22;5101;49.038;8.710;2022-10-15T07:44:03;17.10;99.90
10123;DHT22;5101;49.038;8.710;2022-10-15T07:46:29;17.10;99.90
10123;DHT22;5101;49.038;8.710;2022-10-15T07:48:54;17.10;99.90
10123;DHT22;5101;49.038;8.710;2022-10-15T07:51:20;17.20;99.90
10123;DHT22;5101;49.038;8.710;2022-10-15T07:53:45;17.20;99.90
10123;DHT22;5101;49.038;8.710;2022-10-15T07:56:13;17.30;99.90
10123;DHT22;5101;49.038;8.710;2022-10-15T07:58:39;17.30;99.90
10123;DHT22;5101;49.038;8.710;2022-10-15T08:01:06;17.30;99.90
10123;DHT22;5101;49.038;8.710;2022-10-15T08:03:32;17.40;99.90
10123;DHT22;5101;49.038;8.710;2022-10-15T08:06:02;17.40;99.90
10123;DHT22;5101;49.038;8.710;2022-10-15T08:08:28;17.50;99.90
10123;DHT22;5101;49.038;8.710;2022-10-15T08:10:54;17.40;99.90
10123;DHT22;5101;49.038;8.710;2022-10-15T08:13:20;17.40;99.90
10123;DHT22;5101;49.038;8.710;2022-10-15T08:15:46;17.50;99.90
10123;DHT22;5101;49.038;8.710;2022-10-15T08:18:11;17.50;99.90
10123;DHT22;5101;49.038;8.710;2022-10-15T08:20:37;17.50;99.90
10123;DHT22;5101;49.038;8.710;2022-10-15T08:23:03;17.50;99.90
10123;DHT22;5101;49.038;8.710;2022-10-15T08:25:29;17.60;99.90
10123;DHT22;5101;49.038;8.710;2022-10-15T08:27:56;17.60;99.90
10123;DHT22;5101;49.038;8.710;2022-10-15T08:30:22;17.70;99.90
10123;DHT22;5101;49.038;8.710;2022-10-15T08:32:47;17.70;99.90
10123;DHT22;5101;49.038;8.710;2022-10-15T08:35:13;17.70;99.90
10123;DHT22;5101;49.038;8.710;2022-10-15T08:37:38;17.80;99.90
10123;DHT22;5101;49.038;8.710;2022-10-15T08:40:04;17.80;99.90
10123;DHT22;5101;49.038;8.710;2022-10-15T08:42:42;17.80;99.90
10123;DHT22;5101;49.038;8.710;2022-10-15T08:45:24;17.80;99.90
10123;DHT22;5101;49.038;8.710;2022-10-15T08:47:57;17.80;99.90
10123;DHT22;5101;49.038;8.710;2022-10-15T08:50:32;17.80;99.90
10123;DHT22;5101;49.038;8.710;2022-10-15T08:52:58;17.90;99.90
10123;DHT22;5101;49.038;8.710;2022-10-15T08:55:30;17.80;99.90
10123;DHT22;5101;49.038;8.710;2022-10-15T08:58:11;17.90;99.90
10123;DHT22;5101;49.038;8.710;2022-10-15T09:01:42;17.90;99.90
10123;DHT22;5101;49.038;8.710;2022-10-15T09:06:32;18.00;99.90
10123;DHT22;5101;49.038;8.710;2022-10-15T09:09:17;18.10;99.90
10123;DHT22;5101;49.038;8.710;2022-10-15T09:14:28;18.10;99.90
10123;DHT22;5101;49.038;8.710;2022-10-15T09:16:58;18.20;99.90
10123;DHT22;5101;49.038;8.710;2022-10-15T09:19:27;18.20;99.90
10123;DHT22;5101;49.038;8.710;2022-10-15T09:24:28;18.20;99.90
10123;DHT22;5101;49.038;8.710;2022-10-15T09:27:09;18.30;99.90
10123;DHT22;5101;49.038;8.710;2022-10-15T09:32:24;18.40;99.90
10123;DHT22;5101;49.038;8.710;2022-10-15T09:35:06;18.30;99.90
10123;DHT22;5101;49.038;8.710;2022-10-15T09:38:08;18.40;99.90
10123;DHT22;5101;49.038;8.710;2022-10-15T09:43:28;18.40;99.90
10123;DHT22;5101;49.038;8.710;2022-10-15T09:45:56;18.40;99.90
10123;DHT22;5101;49.038;8.710;2022-10-15T09:48:23;18.40;99.90
10123;DHT22;5101;49.038;8.710;2022-10-15T09:54:17;18.60;99.90
10123;DHT22;5101;49.038;8.710;2022-10-15T09:56:56;18.90;99.90
10123;DHT22;5101;49.038;8.710;2022-10-15T09:59:23;19.00;99.90
10123;DHT22;5101;49.038;8.710;2022-10-15T10:02:19;19.40;99.90
10123;DHT22;5101;49.038;8.710;2022-10-15T10:04:45;19.50;99.90
10123;DHT22;5101;49.038;8.710;2022-10-15T10:07:34;19.60;99.90
10123;DHT22;5101;49.038;8.710;2022-10-15T10:10:03;19.70;99.90
10123;DHT22;5101;49.038;8.710;2022-10-15T10:12:36;19.70;99.90
10123;DHT22;5101;49.038;8.710;2022-10-15T10:15:03;19.80;99.90
10123;DHT22;5101;49.038;8.710;2022-10-15T10:17:30;19.80;99.90
10123;DHT22;5101;49.038;8.710;2022-10-15T10:22:46;19.70;99.90
10123;DHT22;5101;49.038;8.710;2022-10-15T10:25:35;19.70;99.90
10123;DHT22;5101;49.038;8.710;2022-10-15T10:30:36;19.60;99.90
10123;DHT22;5101;49.038;8.710;2022-10-15T10:33:03;19.60;99.90
10123;DHT22;5101;49.038;8.710;2022-10-15T10:35:42;19.50;99.90
10123;DHT22;5101;49.038;8.710;2022-10-15T10:38:26;19.60;99.90
10123;DHT22;5101;49.038;8.710;2022-10-15T10:40:55;19.70;99.90
10123;DHT22;5101;49.038;8.710;2022-10-15T10:43:27;19.70;99.90
10123;DHT22;5101;49.038;8.710;2022-10-15T10:45:58;19.70;99.90
10123;DHT22;5101;49.038;8.710;2022-10-15T10:48:51;19.70;99.90
10123;DHT22;5101;49.038;8.710;2022-10-15T10:51:22;19.80;99.90
10123;DHT22;5101;49.038;8.710;2022-10-15T10:54:01;19.90;99.90
10123;DHT22;5101;49.038;8.710;2022-10-15T10:56:40;20.00;99.90
10123;DHT22;5101;49.038;8.710;2022-10-15T10:59:20;20.20;99.90
10123;DHT22;5101;49.038;8.710;2022-10-15T11:01:48;20.40;99.90
10123;DHT22;5101;49.038;8.710;2022-10-15T11:04:24;20.50;99.90
10123;DHT22;5101;49.038;8.710;2022-10-15T11:07:05;20.70;99.90
10123;DHT22;5101;49.038;8.710;2022-10-15T11:10:07;21.00;99.90
10123;DHT22;5101;49.038;8.710;2022-10-15T11:13:09;21.20;99.90
10123;DHT22;5101;49.038;8.710;2022-10-15T11:24:19;22.20;99.90
10123;DHT22;5101;49.038;8.710;2022-10-15T11:32:38;22.30;97.80
10123;DHT22;5101;49.038;8.710;2022-10-15T11:41:02;22.10;96.80
10123;DHT22;5101;49.038;8.710;2022-10-15T11:43:42;22.10;96.70
10123;DHT22;5101;49.038;8.710;2022-10-15T11:46:40;22.00;96.70
10123;DHT22;5101;49.038;8.710;2022-10-15T11:54:41;21.80;96.50
10123;DHT22;5101;49.038;8.710;2022-10-15T11:57:12;21.70;96.50
10123;DHT22;5101;49.038;8.710;2022-10-15T12:00:45;21.70;96.20
10123;DHT22;5101;49.038;8.710;2022-10-15T12:02:46;21.70;95.90
10123;DHT22;5101;49.038;8.710;2022-10-15T12:05:47;21.70;96.20
10123;DHT22;5101;49.038;8.710;2022-10-15T12:08:14;21.70;96.10
10123;DHT22;5101;49.038;8.710;2022-10-15T12:11:14;21.70;96.20
10123;DHT22;5101;49.038;8.710;2022-10-15T12:13:46;21.60;96.10
10123;DHT22;5101;49.038;8.710;2022-10-15T12:21:41;21.50;96.40
10123;DHT22;5101;49.038;8.710;2022-10-15T12:29:51;21.40;95.90
10123;DHT22;5101;49.038;8.710;2022-10-15T12:35:22;21.20;96.10
10123;DHT22;5101;49.038;8.710;2022-10-15T12:37:49;21.20;96.10
10123;DHT22;5101;49.038;8.710;2022-10-15T12:40:28;21.00;96.30
10123;DHT22;5101;49.038;8.710;2022-10-15T12:42:58;20.90;96.20
10123;DHT22;5101;49.038;8.710;2022-10-15T12:50:34;20.80;97.00
10123;DHT22;5101;49.038;8.710;2022-10-15T12:58:49;20.70;97.60
10123;DHT22;5101;49.038;8.710;2022-10-15T13:11:23;20.50;98.60
10123;DHT22;5101;49.038;8.710;2022-10-15T13:13:59;20.50;98.70
10123;DHT22;5101;49.038;8.710;2022-10-15T13:16:26;20.40;99.10
10123;DHT22;5101;49.038;8.710;2022-10-15T13:18:53;20.30;99.00
10123;DHT22;5101;49.038;8.710;2022-10-15T13:21:20;20.30;99.10
10123;DHT22;5101;49.038;8.710;2022-10-15T13:23:48;20.30;99.00
10123;DHT22;5101;49.038;8.710;2022-10-15T13:26:20;20.30;99.00
10123;DHT22;5101;49.038;8.710;2022-10-15T13:28:47;20.30;98.90
10123;DHT22;5101;49.038;8.710;2022-10-15T13:33:55;20.30;98.80
10123;DHT22;5101;49.038;8.710;2022-10-15T13:36:25;20.30;99.00
10123;DHT22;5101;49.038;8.710;2022-10-15T13:38:57;20.20;99.00
10123;DHT22;5101;49.038;8.710;2022-10-15T13:41:33;20.20;99.30
10123;DHT22;5101;49.038;8.710;2022-10-15T13:43:59;20.20;99.30
10123;DHT22;5101;49.038;8.710;2022-10-15T13:46:45;20.10;99.30
10123;DHT22;5101;49.038;8.710;2022-10-15T13:49:12;20.10;99.40
10123;DHT22;5101;49.038;8.710;2022-10-15T13:51:48;20.00;99.80
10123;DHT22;5101;49.038;8.710;2022-10-15T13:54:28;20.00;99.90
10123;DHT22;5101;49.038;8.710;2022-10-15T13:56:57;19.90;99.90
10123;DHT22;5101;49.038;8.710;2022-10-15T13:59:26;19.80;99.90
10123;DHT22;5101;49.038;8.710;2022-10-15T14:01:56;19.80;99.90
10123;DHT22;5101;49.038;8.710;2022-10-15T14:04:29;19.70;99.90
10123;DHT22;5101;49.038;8.710;2022-10-15T14:07:00;19.70;99.90
10123;DHT22;5101;49.038;8.710;2022-10-15T14:09:52;19.70;99.90
10123;DHT22;5101;49.038;8.710;2022-10-15T14:12:18;19.80;99.90
10123;DHT22;5101;49.038;8.710;2022-10-15T14:14:45;19.80;99.90
10123;DHT22;5101;49.038;8.710;2022-10-15T14:17:32;19.80;99.90
10123;DHT22;5101;49.038;8.710;2022-10-15T14:20:03;19.80;99.90
10123;DHT22;5101;49.038;8.710;2022-10-15T14:22:30;19.80;99.90
10123;DHT22;5101;49.038;8.710;2022-10-15T14:24:56;19.80;99.90
10123;DHT22;5101;49.038;8.710;2022-10-15T14:27:24;19.80;99.90
10123;DHT22;5101;49.038;8.710;2022-10-15T14:29:52;19.80;99.90
10123;DHT22;5101;49.038;8.710;2022-10-15T14:32:25;19.90;99.90
10123;DHT22;5101;49.038;8.710;2022-10-15T14:34:55;19.90;99.90
10123;DHT22;5101;49.038;8.710;2022-10-15T14:42:40;20.00;99.90
10123;DHT22;5101;49.038;8.710;2022-10-15T14:47:40;20.00;99.90
10123;DHT22;5101;49.038;8.710;2022-10-15T14:50:09;20.00;99.90
10123;DHT22;5101;49.038;8.710;2022-10-15T14:52:35;20.00;99.90
10123;DHT22;5101;49.038;8.710;2022-10-15T14:55:04;20.00;99.90
10123;DHT22;5101;49.038;8.710;2022-10-15T14:57:35;19.90;99.90
10123;DHT22;5101;49.038;8.710;2022-10-15T15:00:05;19.90;99.90
10123;DHT22;5101;49.038;8.710;2022-10-15T15:02:36;19.80;99.90
10123;DHT22;5101;49.038;8.710;2022-10-15T15:07:36;19.60;99.90
10123;DHT22;5101;49.038;8.710;2022-10-15T15:10:02;19.60;99.90
10123;DHT22;5101;49.038;8.710;2022-10-15T15:12:29;19.70;99.90
10123;DHT22;5101;49.038;8.710;2022-10-15T15:14:56;19.70;99.90
10123;DHT22;5101;49.038;8.710;2022-10-15T15:17:23;19.60;99.90
10123;DHT22;5101;49.038;8.710;2022-10-15T15:19:51;19.60;99.90
10123;DHT22;5101;49.038;8.710;2022-10-15T15:22:27;19.60;99.90
10123;DHT22;5101;49.038;8.710;2022-10-15T15:24:54;19.50;99.90
10123;DHT22;5101;49.038;8.710;2022-10-15T15:27:24;19.50;99.90
10123;DHT22;5101;49.038;8.710;2022-10-15T15:29:50;19.40;99.90
10123;DHT22;5101;49.038;8.710;2022-10-15T15:32:16;19.30;99.90
10123;DHT22;5101;49.038;8.710;2022-10-15T15:34:42;19.30;99.90
10123;DHT22;5101;49.038;8.710;2022-10-15T15:37:19;19.20;99.90
10123;DHT22;5101;49.038;8.710;2022-10-15T15:39:45;19.10;99.90
10123;DHT22;5101;49.038;8.710;2022-10-15T15:42:20;19.10;99.90
10123;DHT22;5101;49.038;8.710;2022-10-15T15:44:46;19.10;99.90
10123;DHT22;5101;49.038;8.710;2022-10-15T15:47:12;19.00;99.90
10123;DHT22;5101;49.038;8.710;2022-10-15T15:49:38;19.00;99.90
10123;DHT22;5101;49.038;8.710;2022-10-15T15:52:05;19.00;99.90
10123;DHT22;5101;49.038;8.710;2022-10-15T15:54:33;18.90;99.90
10123;DHT22;5101;49.038;8.710;2022-10-15T15:56:58;18.90;99.90
10123;DHT22;5101;49.038;8.710;2022-10-15T15:59:24;19.00;99.90
10123;DHT22;5101;49.038;8.710;2022-10-15T16:01:49;18.90;99.90
10123;DHT22;5101;49.038;8.710;2022-10-15T16:04:15;18.90;99.90
10123;DHT22;5101;49.038;8.710;2022-10-15T16:06:41;18.80;99.90
10123;DHT22;5101;49.038;8.710;2022-10-15T16:09:07;18.80;99.90
10123;DHT22;5101;49.038;8.710;2022-10-15T16:11:36;18.80;99.90
10123;DHT22;5101;49.038;8.710;2022-10-15T16:14:02;18.70;99.90
10123;DHT22;5101;49.038;8.710;2022-10-15T16:16:28;18.70;99.90
10123;DHT22;5101;49.038;8.710;2022-10-15T16:18:53;18.70;99.90
10123;DHT22;5101;49.038;8.710;2022-10-15T16:21:25;18.70;99.90
10123;DHT22;5101;49.038;8.710;2022-10-15T16:23:51;18.60;99.90
10123;DHT22;5101;49.038;8.710;2022-10-15T16:26:17;18.60;99.90
10123;DHT22;5101;49.038;8.710;2022-10-15T16:28:43;18.60;99.90
10123;DHT22;5101;49.038;8.710;2022-10-15T16:31:27;18.60;99.90
10123;DHT22;5101;49.038;8.710;2022-10-15T16:33:54;18.50;99.90
10123;DHT22;5101;49.038;8.710;2022-10-15T16:36:19;18.50;99.90
10123;DHT22;5101;49.038;8.710;2022-10-15T16:38:45;18.40;99.90
10123;DHT22;5101;49.038;8.710;2022-10-15T16:41:12;18.40;99.90
10123;DHT22;5101;49.038;8.710;2022-10-15T16:43:39;18.40;99.90
10123;DHT22;5101;49.038;8.710;2022-10-15T16:46:04;18.30;99.90
10123;DHT22;5101;49.038;8.710;2022-10-15T16:48:31;18.30;99.90
10123;DHT22;5101;49.038;8.710;2022-10-15T16:51:06;18.30;99.90
10123;DHT22;5101;49.038;8.710;2022-10-15T16:53:33;18.30;99.90
10123;DHT22;5101;49.038;8.710;2022-10-15T16:56:07;18.30;99.90
10123;DHT22;5101;49.038;8.710;2022-10-15T16:58:33;18.20;99.90
10123;DHT22;5101;49.038;8.710;2022-10-15T17:01:03;18.20;99.90
10123;DHT22;5101;49.038;8.710;2022-10-15T17:03:31;18.10;99.90
10123;DHT22;5101;49.038;8.710;2022-10-15T17:05:58;18.10;99.90
10123;DHT22;5101;49.038;8.710;2022-10-15T17:08:28;18.10;99.90
10123;DHT22;5101;49.038;8.710;2022-10-15T17:10:57;18.10;99.90
10123;DHT22;5101;49.038;8.710;2022-10-15T17:13:23;18.10;99.90
10123;DHT22;5101;49.038;8.710;2022-10-15T17:15:48;18.00;99.90
10123;DHT22;5101;49.038;8.710;2022-10-15T17:18:14;18.00;99.90
10123;DHT22;5101;49.038;8.710;2022-10-15T17:20:46;18.00;99.90
10123;DHT22;5101;49.038;8.710;2022-10-15T17:23:14;18.00;99.90
10123;DHT22;5101;49.038;8.710;2022-10-15T17:25:40;18.00;99.90
10123;DHT22;5101;49.038;8.710;2022-10-15T17:28:06;17.90;99.90
10123;DHT22;5101;49.038;8.710;2022-10-15T17:30:36;17.90;99.90
10123;DHT22;5101;49.038;8.710;2022-10-15T17:33:03;17.90;99.90
10123;DHT22;5101;49.038;8.710;2022-10-15T17:35:30;17.90;99.90
10123;DHT22;5101;49.038;8.710;2022-10-15T17:37:57;17.80;99.90
10123;DHT22;5101;49.038;8.710;2022-10-15T17:40:23;17.80;99.90
10123;DHT22;5101;49.038;8.710;2022-10-15T17:42:49;17.80;99.90
10123;DHT22;5101;49.038;8.710;2022-10-15T17:45:15;17.80;99.90
10123;DHT22;5101;49.038;8.710;2022-10-15T17:47:40;17.80;99.90
10123;DHT22;5101;49.038;8.710;2022-10-15T17:50:06;17.80;99.90
10123;DHT22;5101;49.038;8.710;2022-10-15T17:52:32;17.80;99.90
10123;DHT22;5101;49.038;8.710;2022-10-15T17:54:58;17.80;99.90
10123;DHT22;5101;49.038;8.710;2022-10-15T17:57:23;17.80;99.90